createdAt,value
2019-02-22T00:00:43.907Z,34.35
2019-02-22T00:03:12.766Z,37.40
2019-02-22T00:05:41.536Z,34.00
2019-02-22T00:08:10.406Z,38.10
2019-02-22T00:10:39.200Z,34.85
2019-02-22T00:13:07.995Z,34.48
2019-02-22T00:15:36.805Z,38.85
2019-02-22T00:18:05.600Z,34.95
2019-02-22T00:20:34.362Z,37.80
2019-02-22T00:23:03.050Z,37.40
2019-02-22T00:25:31.911Z,39.48
2019-02-22T00:28:00.982Z,36.25
2019-02-22T00:30:29.826Z,37.08
2019-02-22T00:32:58.719Z,37.30
2019-02-22T00:35:27.532Z,36.45
2019-02-22T00:37:56.314Z,38.63
2019-02-22T00:40:25.268Z,38.92
2019-02-22T00:42:54.260Z,40.45
2019-02-22T00:45:22.970Z,38.42
2019-02-22T00:47:51.746Z,39.25
2019-02-22T00:50:20.491Z,39.78
2019-02-22T00:52:49.376Z,39.30
2019-02-22T00:55:18.129Z,37.05
2019-02-22T00:57:46.948Z,39.25
2019-02-22T01:00:15.672Z,38.10
2019-02-22T01:02:44.410Z,35.73
2019-02-22T01:05:13.138Z,35.83
2019-02-22T01:07:41.923Z,36.55
2019-02-22T01:10:10.945Z,37.55
2019-02-22T01:12:39.803Z,36.35
2019-02-22T01:15:08.606Z,38.53
2019-02-22T01:17:37.430Z,36.75
2019-02-22T01:20:06.442Z,38.13
2019-02-22T01:22:35.249Z,41.90
2019-02-22T01:25:04.047Z,36.42
2019-02-22T01:27:32.881Z,37.88
2019-02-22T01:30:01.675Z,39.38
2019-02-22T01:32:30.570Z,41.25
2019-02-22T01:34:59.375Z,42.40
2019-02-22T01:37:28.111Z,40.85
2019-02-22T01:39:56.929Z,42.20
2019-02-22T01:42:25.718Z,43.78
2019-02-22T01:44:54.591Z,45.73
2019-02-22T01:47:23.459Z,41.23
2019-02-22T01:49:52.219Z,41.53
2019-02-22T01:52:20.903Z,41.73
2019-02-22T01:54:49.711Z,41.68
2019-02-22T01:57:18.480Z,41.37
2019-02-22T01:59:47.245Z,42.48
2019-02-22T02:02:16.033Z,44.25
2019-02-22T02:04:45.029Z,41.85
2019-02-22T02:07:13.810Z,41.28
2019-02-22T02:09:42.671Z,43.68
2019-02-22T02:12:11.385Z,43.15
2019-02-22T02:14:40.132Z,39.25
2019-02-22T02:17:08.971Z,40.40
2019-02-22T02:19:37.732Z,41.85
2019-02-22T02:22:06.617Z,43.13
2019-02-22T02:24:35.327Z,44.60
2019-02-22T02:27:04.133Z,42.98
2019-02-22T02:29:32.843Z,41.15
2019-02-22T02:32:01.754Z,42.65
2019-02-22T02:34:30.451Z,43.95
2019-02-22T02:36:59.145Z,43.30
2019-02-22T02:39:27.865Z,42.90
2019-02-22T02:41:56.589Z,45.58
2019-02-22T02:44:25.467Z,42.73
2019-02-22T02:46:54.346Z,44.05
2019-02-22T02:49:23.158Z,44.50
2019-02-22T02:51:51.937Z,42.65
2019-02-22T02:54:20.782Z,41.53
2019-02-22T02:56:49.661Z,43.02
2019-02-22T02:59:18.579Z,40.65
2019-02-22T03:01:47.303Z,42.88
2019-02-22T03:04:16.030Z,42.58
2019-02-22T03:06:55.934Z,42.53
2019-02-22T03:09:24.669Z,41.77
2019-02-22T03:11:53.567Z,39.10
2019-02-22T03:14:22.398Z,37.50
2019-02-22T03:16:51.250Z,42.05
2019-02-22T03:19:19.963Z,38.30
2019-02-22T03:21:49.078Z,39.23
2019-02-22T03:24:17.760Z,37.88
2019-02-22T03:26:46.549Z,44.27
2019-02-22T03:29:15.306Z,38.75
2019-02-22T03:31:44.063Z,37.93
2019-02-22T03:34:12.912Z,35.00
2019-02-22T03:36:41.767Z,39.60
2019-02-22T03:39:10.556Z,39.33
2019-02-22T03:41:39.256Z,37.48
2019-02-22T03:44:07.965Z,37.08
2019-02-22T03:46:36.722Z,37.23
2019-02-22T03:49:05.464Z,39.15
2019-02-22T03:51:34.320Z,39.23
2019-02-22T03:54:04.118Z,39.67
2019-02-22T03:56:32.872Z,37.23
2019-02-22T03:59:01.615Z,37.48
2019-02-22T04:01:30.339Z,41.18
2019-02-22T04:03:59.040Z,35.65
2019-02-22T04:06:27.871Z,37.50
2019-02-22T04:08:56.708Z,36.03
2019-02-22T04:11:25.501Z,35.88
2019-02-22T04:13:54.319Z,34.08
2019-02-22T04:16:23.103Z,36.10
2019-02-22T04:18:51.798Z,35.90
2019-02-22T04:21:20.587Z,36.25
2019-02-22T04:23:49.337Z,33.35
2019-02-22T04:26:18.204Z,35.43
2019-02-22T04:28:46.933Z,35.80
2019-02-22T04:31:15.701Z,34.80
2019-02-22T04:33:44.426Z,34.55
2019-02-22T04:36:13.118Z,31.10
2019-02-22T04:38:44.691Z,31.57
2019-02-22T04:41:13.465Z,31.42
2019-02-22T04:43:42.340Z,31.75
2019-02-22T04:46:11.129Z,32.60
2019-02-22T04:48:39.946Z,29.18
2019-02-22T04:51:08.791Z,30.95
2019-02-22T04:53:37.693Z,31.05
2019-02-22T04:56:06.398Z,29.55
2019-02-22T04:58:35.151Z,29.82
2019-02-22T05:01:03.919Z,28.27
2019-02-22T05:03:32.669Z,27.82
2019-02-22T05:06:01.406Z,30.25
2019-02-22T05:08:30.200Z,30.60
2019-02-22T05:10:58.959Z,29.90
2019-02-22T05:13:27.788Z,30.20
2019-02-22T05:15:56.574Z,31.07
2019-02-22T05:18:25.446Z,32.23
2019-02-22T05:20:54.217Z,33.13
2019-02-22T05:23:22.922Z,27.05
2019-02-22T05:25:51.761Z,27.00
2019-02-22T05:28:20.496Z,30.08
2019-02-22T05:30:49.253Z,29.52
2019-02-22T05:33:17.983Z,30.30
2019-02-22T05:35:46.777Z,29.87
2019-02-22T05:38:15.642Z,29.70
2019-02-22T05:40:44.362Z,30.02
2019-02-22T05:43:13.109Z,28.15
2019-02-22T05:45:41.979Z,28.27
2019-02-22T05:48:10.713Z,30.60
2019-02-22T05:50:39.396Z,30.23
2019-02-22T05:53:08.203Z,29.42
2019-02-22T05:55:36.957Z,29.15
2019-02-22T05:58:05.774Z,30.23
2019-02-22T06:00:34.503Z,30.65
2019-02-22T06:03:03.249Z,30.05
2019-02-22T06:05:32.021Z,30.27
2019-02-22T06:08:00.725Z,27.95
2019-02-22T06:10:29.497Z,28.92
2019-02-22T06:12:58.351Z,32.70
2019-02-22T06:15:27.059Z,32.35
2019-02-22T06:17:55.878Z,35.63
2019-02-22T06:20:24.865Z,37.63
2019-02-22T06:22:53.876Z,35.85
2019-02-22T06:25:22.746Z,39.03
2019-02-22T06:27:51.537Z,38.73
2019-02-22T06:30:20.339Z,40.67
2019-02-22T06:32:49.174Z,40.98
2019-02-22T06:35:17.909Z,39.92
2019-02-22T06:37:46.871Z,42.38
2019-02-22T06:40:15.732Z,42.08
2019-02-22T06:42:46.057Z,40.40
2019-02-22T06:45:15.192Z,45.70
2019-02-22T06:47:44.033Z,41.83
2019-02-22T06:50:12.929Z,45.05
2019-02-22T06:52:41.766Z,40.55
2019-02-22T06:55:10.593Z,44.00
2019-02-22T06:57:39.377Z,45.20
2019-02-22T07:00:09.428Z,43.90
2019-02-22T07:02:38.225Z,48.45
2019-02-22T07:05:07.149Z,47.90
2019-02-22T07:07:36.020Z,48.42
2019-02-22T07:10:05.390Z,47.17
2019-02-22T07:12:40.449Z,46.70
2019-02-22T07:15:09.260Z,47.17
2019-02-22T07:17:38.167Z,48.23
2019-02-22T07:20:08.882Z,49.40
2019-02-22T07:22:37.731Z,52.48
2019-02-22T07:25:07.609Z,54.83
2019-02-22T07:27:36.462Z,53.08
2019-02-22T07:30:05.523Z,54.93
2019-02-22T07:32:34.363Z,56.55
2019-02-22T07:35:03.248Z,54.73
2019-02-22T07:37:39.901Z,54.80
2019-02-22T07:40:10.760Z,56.53
2019-02-22T07:42:39.802Z,55.28
2019-02-22T07:45:10.329Z,55.28
2019-02-22T07:47:39.108Z,62.83
2019-02-22T07:50:12.240Z,55.05
2019-02-22T07:52:41.257Z,54.03
2019-02-22T07:55:10.760Z,63.20
2019-02-22T07:57:40.276Z,65.08
2019-02-22T08:00:11.893Z,57.95
2019-02-22T08:02:40.646Z,68.87
2019-02-22T08:05:09.511Z,60.00
2019-02-22T08:07:38.247Z,57.65
2019-02-22T08:10:07.142Z,54.05
2019-02-22T08:12:36.095Z,61.08
2019-02-22T08:15:13.232Z,59.88
2019-02-22T08:17:42.069Z,52.27
2019-02-22T08:20:10.812Z,56.30
2019-02-22T08:22:39.627Z,52.60
2019-02-22T08:25:08.481Z,80.80
2019-02-22T08:27:39.983Z,53.33
2019-02-22T08:30:08.774Z,59.90
2019-02-22T08:32:37.812Z,57.75
2019-02-22T08:35:06.713Z,56.63
2019-02-22T08:37:35.617Z,53.30
2019-02-22T08:40:04.832Z,52.43
2019-02-22T08:42:33.640Z,49.77
2019-02-22T08:45:02.492Z,53.95
2019-02-22T08:47:31.263Z,59.20
2019-02-22T08:49:59.991Z,51.95
2019-02-22T08:52:28.721Z,51.55
2019-02-22T08:54:57.559Z,53.20
2019-02-22T08:57:26.279Z,49.75
2019-02-22T08:59:55.148Z,55.60
2019-02-22T09:02:24.129Z,55.40
2019-02-22T09:04:53.030Z,53.87
2019-02-22T09:07:21.779Z,47.83
2019-02-22T09:09:50.656Z,52.58
2019-02-22T09:12:19.525Z,49.90
2019-02-22T09:14:48.291Z,49.93
2019-02-22T09:17:17.113Z,46.77
2019-02-22T09:19:45.969Z,48.83
2019-02-22T09:22:22.278Z,47.45
2019-02-22T09:24:45.235Z,47.43
2019-02-22T09:27:14.072Z,42.90
2019-02-22T09:29:43.014Z,46.77
2019-02-22T09:32:11.790Z,47.10
2019-02-22T09:34:40.713Z,42.33
2019-02-22T09:37:09.451Z,45.92
2019-02-22T09:39:38.305Z,46.05
2019-02-22T09:42:07.075Z,43.95
2019-02-22T09:44:35.996Z,39.58
2019-02-22T09:47:05.147Z,44.35
2019-02-22T09:49:33.931Z,46.77
2019-02-22T09:52:02.886Z,41.73
2019-02-22T09:54:31.713Z,44.55
2019-02-22T09:57:02.033Z,40.63
2019-02-22T09:59:30.911Z,43.30
2019-02-22T10:01:59.738Z,42.83
2019-02-22T10:04:28.552Z,47.60
2019-02-22T10:06:57.308Z,40.48
2019-02-22T10:09:26.240Z,42.95
2019-02-22T10:11:55.061Z,45.80
2019-02-22T10:14:23.879Z,39.05
2019-02-22T10:16:52.681Z,39.73
2019-02-22T10:19:21.567Z,39.08
2019-02-22T10:21:50.415Z,36.88
2019-02-22T10:24:19.323Z,39.42
2019-02-22T10:26:48.095Z,43.80
2019-02-22T10:29:17.050Z,40.23
2019-02-22T10:31:46.006Z,39.03
2019-02-22T10:34:14.881Z,38.25
2019-02-22T10:36:45.527Z,38.63
2019-02-22T10:39:14.211Z,37.38
2019-02-22T10:41:43.009Z,41.83
2019-02-22T10:44:17.912Z,40.40
2019-02-22T10:46:42.498Z,86.72
2019-02-22T10:49:11.348Z,49.30
2019-02-22T10:51:40.159Z,34.10
2019-02-22T10:54:08.929Z,35.15
2019-02-22T10:56:39.267Z,37.15
2019-02-22T10:59:08.298Z,34.78
2019-02-22T11:01:37.256Z,34.63
2019-02-22T11:04:06.979Z,34.43
2019-02-22T11:06:35.888Z,35.60
2019-02-22T11:09:05.422Z,34.98
2019-02-22T11:11:34.175Z,38.28
2019-02-22T11:14:03.317Z,35.78
2019-02-22T11:16:32.506Z,33.92
2019-02-22T11:19:01.330Z,36.75
2019-02-22T11:21:30.254Z,36.23
2019-02-22T11:23:59.132Z,35.83
2019-02-22T11:26:27.913Z,39.35
2019-02-22T11:28:56.622Z,35.68
2019-02-22T11:31:25.396Z,35.70
2019-02-22T11:33:54.168Z,32.08
2019-02-22T11:36:23.094Z,33.75
2019-02-22T11:38:51.991Z,34.38
2019-02-22T11:41:20.802Z,30.35
2019-02-22T11:43:49.547Z,30.05
2019-02-22T11:46:18.466Z,25.40
2019-02-22T11:48:47.190Z,24.18
2019-02-22T11:51:15.990Z,24.90
2019-02-22T11:53:44.908Z,27.35
2019-02-22T11:56:13.715Z,28.52
2019-02-22T11:58:42.422Z,27.62
2019-02-22T12:01:12.429Z,23.83
2019-02-22T12:03:41.223Z,27.32
2019-02-22T12:06:10.115Z,23.07
2019-02-22T12:08:48.787Z,25.90
2019-02-22T12:11:16.383Z,23.83
2019-02-22T12:13:45.315Z,24.02
2019-02-22T12:16:14.257Z,19.60
2019-02-22T12:18:43.222Z,24.35
2019-02-22T12:21:12.073Z,22.52
2019-02-22T12:23:40.860Z,25.62
2019-02-22T12:26:09.780Z,21.33
2019-02-22T12:28:38.601Z,26.33
2019-02-22T12:31:07.475Z,30.48
2019-02-22T12:33:36.378Z,31.05
2019-02-22T12:36:05.372Z,29.05
2019-02-22T12:38:34.272Z,30.17
2019-02-22T12:41:03.035Z,29.02
2019-02-22T12:43:31.745Z,28.80
2019-02-22T12:46:00.430Z,30.88
2019-02-22T12:48:29.151Z,31.25
2019-02-22T12:50:57.949Z,27.37
2019-02-22T12:53:26.681Z,28.50
2019-02-22T12:55:55.395Z,30.30
2019-02-22T12:58:24.268Z,31.48
2019-02-22T13:00:53.139Z,30.10
2019-02-22T13:03:24.206Z,28.57
2019-02-22T13:05:52.979Z,29.52
2019-02-22T13:08:35.125Z,27.93
2019-02-22T13:11:04.232Z,28.73
2019-02-22T13:13:32.984Z,35.30
2019-02-22T13:16:01.778Z,32.83
2019-02-22T13:18:30.505Z,33.95
2019-02-22T13:20:59.367Z,32.65
2019-02-22T13:23:28.074Z,32.05
2019-02-22T13:25:56.873Z,31.05
2019-02-22T13:28:25.595Z,30.55
2019-02-22T13:30:54.466Z,34.30
2019-02-22T13:33:25.328Z,39.10
2019-02-22T13:35:54.086Z,35.58
2019-02-22T13:38:22.985Z,40.52
2019-02-22T13:40:51.755Z,38.45
2019-02-22T13:43:20.619Z,40.08
2019-02-22T13:45:50.639Z,42.33
2019-02-22T13:48:19.517Z,43.52
2019-02-22T13:50:48.240Z,48.20
2019-02-22T13:53:19.372Z,44.27
2019-02-22T13:55:48.214Z,40.88
2019-02-22T13:58:16.960Z,47.38
2019-02-22T14:00:45.709Z,44.35
2019-02-22T14:03:14.640Z,40.88
2019-02-22T14:05:43.433Z,45.25
2019-02-22T14:08:12.315Z,40.58
2019-02-22T14:10:41.152Z,42.78
2019-02-22T14:13:10.158Z,41.02
2019-02-22T14:15:38.946Z,43.38
2019-02-22T14:18:07.681Z,39.90
2019-02-22T14:20:36.516Z,38.65
2019-02-22T14:23:05.528Z,45.40
2019-02-22T14:25:34.318Z,40.33
2019-02-22T14:28:03.182Z,40.65
2019-02-22T14:30:31.996Z,35.35
2019-02-22T14:33:00.980Z,37.08
2019-02-22T14:35:29.834Z,37.55
2019-02-22T14:37:58.588Z,38.42
2019-02-22T14:40:27.363Z,41.60
2019-02-22T14:42:56.226Z,37.55
2019-02-22T14:45:25.203Z,41.08
2019-02-22T14:47:54.032Z,41.30
2019-02-22T14:50:23.537Z,41.40
2019-02-22T14:52:52.474Z,44.90
2019-02-22T14:55:21.485Z,42.20
2019-02-22T14:57:50.378Z,42.30
2019-02-22T15:00:19.132Z,45.98
2019-02-22T15:02:47.854Z,51.48
2019-02-22T15:05:16.623Z,43.20
2019-02-22T15:07:45.457Z,40.50
2019-02-22T15:10:14.289Z,51.13
2019-02-22T15:12:43.416Z,38.83
2019-02-22T15:15:12.902Z,41.18
2019-02-22T15:17:53.946Z,43.85
2019-02-22T15:20:24.784Z,40.05
2019-02-22T15:22:53.780Z,37.30
2019-02-22T15:25:23.183Z,42.65
2019-02-22T15:27:52.271Z,43.95
2019-02-22T15:30:21.555Z,40.90
2019-02-22T15:32:50.493Z,38.92
2019-02-22T15:35:19.484Z,38.17
2019-02-22T15:37:48.598Z,37.53
2019-02-22T15:40:17.719Z,37.45
2019-02-22T15:42:46.834Z,39.63
2019-02-22T15:45:17.501Z,39.00
2019-02-22T15:47:48.607Z,40.05
2019-02-22T15:50:17.301Z,40.05
2019-02-22T15:52:46.951Z,37.33
2019-02-22T15:55:16.003Z,34.38
2019-02-22T15:57:44.851Z,38.88
2019-02-22T16:00:17.268Z,37.00
2019-02-22T16:02:46.278Z,34.48
2019-02-22T16:05:19.450Z,38.88
2019-02-22T16:07:48.212Z,37.73
2019-02-22T16:10:16.939Z,38.70
2019-02-22T16:12:45.750Z,36.60
2019-02-22T16:15:14.877Z,38.48
2019-02-22T16:17:43.779Z,36.60
2019-02-22T16:20:13.447Z,34.50
2019-02-22T16:22:42.234Z,40.20
2019-02-22T16:25:19.137Z,35.65
2019-02-22T16:27:41.539Z,36.80
2019-02-22T16:30:12.112Z,39.03
2019-02-22T16:32:40.822Z,36.15
2019-02-22T16:35:09.646Z,36.35
2019-02-22T16:37:38.501Z,37.48
2019-02-22T16:40:08.562Z,35.25
2019-02-22T16:42:37.308Z,39.75
2019-02-22T16:45:06.848Z,39.50
2019-02-22T16:47:40.106Z,41.10
2019-02-22T16:50:07.378Z,38.23
2019-02-22T16:52:36.259Z,36.60
2019-02-22T16:55:05.566Z,37.05
2019-02-22T16:57:34.538Z,37.00
2019-02-22T17:00:03.389Z,42.00
2019-02-22T17:02:32.289Z,39.55
2019-02-22T17:05:01.119Z,37.58
2019-02-22T17:07:29.944Z,35.17
2019-02-22T17:09:58.675Z,38.73
2019-02-22T17:12:27.458Z,33.13
2019-02-22T17:14:56.195Z,37.58
2019-02-22T17:17:25.118Z,39.85
2019-02-22T17:19:53.857Z,34.60
2019-02-22T17:22:22.709Z,36.38
2019-02-22T17:24:51.527Z,36.55
2019-02-22T17:27:20.339Z,37.10
2019-02-22T17:29:49.245Z,35.38
2019-02-22T17:32:18.101Z,36.42
2019-02-22T17:34:46.959Z,36.98
2019-02-22T17:37:15.722Z,31.37
2019-02-22T17:39:47.906Z,34.05
2019-02-22T17:42:16.747Z,31.50
2019-02-22T17:44:45.468Z,26.20
2019-02-22T17:47:14.183Z,26.68
2019-02-22T17:49:42.977Z,25.05
2019-02-22T17:52:11.717Z,29.67
2019-02-22T17:54:40.535Z,25.10
2019-02-22T17:57:09.278Z,28.52
2019-02-22T17:59:38.002Z,24.15
2019-02-22T18:02:06.817Z,24.60
2019-02-22T18:04:35.602Z,20.57
2019-02-22T18:07:04.653Z,21.73
2019-02-22T18:09:33.374Z,28.23
2019-02-22T18:12:02.143Z,24.12
2019-02-22T18:14:30.985Z,27.60
2019-02-22T18:17:08.025Z,27.32
2019-02-22T18:19:32.016Z,22.73
2019-02-22T18:22:00.895Z,23.32
2019-02-22T18:24:29.709Z,21.05
2019-02-22T18:26:58.442Z,19.60
2019-02-22T18:29:35.126Z,23.02
2019-02-22T18:31:57.673Z,18.50
2019-02-22T18:34:26.408Z,18.87
2019-02-22T18:36:55.153Z,16.82
2019-02-22T18:39:23.881Z,21.23
2019-02-22T18:41:52.685Z,19.15
2019-02-22T18:44:21.462Z,23.05
2019-02-22T18:46:50.237Z,19.65
2019-02-22T18:49:19.036Z,35.30
2019-02-22T18:51:48.065Z,29.57
2019-02-22T18:54:16.800Z,22.50
2019-02-22T18:56:45.482Z,19.45
2019-02-22T18:59:14.208Z,17.80
2019-02-22T19:01:42.917Z,15.40
2019-02-22T19:04:11.649Z,17.02
2019-02-22T19:06:40.458Z,19.05
2019-02-22T19:09:09.275Z,13.88
2019-02-22T19:11:38.050Z,14.60
2019-02-22T19:14:06.794Z,14.10
2019-02-22T19:16:35.691Z,14.45
2019-02-22T19:19:04.618Z,11.85
2019-02-22T19:21:33.520Z,13.43
2019-02-22T19:24:02.290Z,14.15
2019-02-22T19:26:31.122Z,14.73
2019-02-22T19:28:59.930Z,15.08
2019-02-22T19:31:28.655Z,13.53
2019-02-22T19:33:57.369Z,17.12
2019-02-22T19:36:26.106Z,13.98
2019-02-22T19:38:54.858Z,12.95
2019-02-22T19:41:23.624Z,13.28
2019-02-22T19:43:52.416Z,15.58
2019-02-22T19:46:21.176Z,13.05
2019-02-22T19:48:49.905Z,13.75
2019-02-22T19:51:18.739Z,14.28
2019-02-22T19:53:47.450Z,17.32
2019-02-22T19:56:16.221Z,15.45
2019-02-22T19:58:44.950Z,16.93
2019-02-22T20:01:13.815Z,17.10
2019-02-22T20:03:42.739Z,12.80
2019-02-22T20:06:11.723Z,17.20
2019-02-22T20:08:40.452Z,12.73
2019-02-22T20:11:09.210Z,17.00
2019-02-22T20:13:37.943Z,18.57
2019-02-22T20:16:06.702Z,16.40
2019-02-22T20:18:35.534Z,19.42
2019-02-22T20:21:04.659Z,19.52
2019-02-22T20:23:33.491Z,15.20
2019-02-22T20:26:02.213Z,15.43
2019-02-22T20:28:30.976Z,16.30
2019-02-22T20:30:59.709Z,21.90
2019-02-22T20:33:30.242Z,16.05
2019-02-22T20:36:31.032Z,16.07
2019-02-22T20:39:02.828Z,15.95
2019-02-22T20:41:34.349Z,18.35
2019-02-22T20:44:07.642Z,16.02
2019-02-22T20:46:37.804Z,18.98
2019-02-22T20:49:07.292Z,16.67
2019-02-22T20:51:38.022Z,18.27
2019-02-22T20:54:06.778Z,16.87
2019-02-22T20:56:41.591Z,18.48
2019-02-22T20:59:10.584Z,18.25
2019-02-22T21:01:39.731Z,18.80
2019-02-22T21:04:10.499Z,19.20
2019-02-22T21:06:38.929Z,17.10
2019-02-22T21:09:08.231Z,18.27
2019-02-22T21:11:37.015Z,18.20
2019-02-22T21:14:05.981Z,18.90
2019-02-22T21:16:43.998Z,19.07
2019-02-22T21:19:12.869Z,24.92
2019-02-22T21:21:44.335Z,20.48
2019-02-22T21:24:16.997Z,20.08
2019-02-22T21:26:53.255Z,20.52
2019-02-22T21:29:24.023Z,21.55
2019-02-22T21:31:55.791Z,25.02
2019-02-22T21:34:24.623Z,23.50
2019-02-22T21:36:53.488Z,22.95
2019-02-22T21:39:22.469Z,23.22
2019-02-22T21:41:51.244Z,23.38
2019-02-22T21:44:20.204Z,25.27
2019-02-22T21:46:49.199Z,22.05
2019-02-22T21:49:18.030Z,22.93
2019-02-22T21:51:46.879Z,25.92
2019-02-22T21:54:15.738Z,25.92
2019-02-22T21:56:44.669Z,27.55
2019-02-22T21:59:16.335Z,24.43
2019-02-22T22:01:45.076Z,26.10
2019-02-22T22:04:13.995Z,28.10
2019-02-22T22:06:42.749Z,27.25
2019-02-22T22:09:11.535Z,26.33
2019-02-22T22:11:40.298Z,26.02
2019-02-22T22:14:09.054Z,29.57
2019-02-22T22:16:37.956Z,28.40
2019-02-22T22:19:06.762Z,27.82
2019-02-22T22:21:35.601Z,28.12
2019-02-22T22:24:06.776Z,30.10
2019-02-22T22:26:35.568Z,28.23
2019-02-22T22:29:10.601Z,26.37
2019-02-22T22:31:43.738Z,30.35
2019-02-22T22:34:12.767Z,32.17
2019-02-22T22:36:41.956Z,30.23
2019-02-22T22:39:13.811Z,30.40
2019-02-22T22:41:42.531Z,29.55
2019-02-22T22:44:11.420Z,33.25
2019-02-22T22:46:40.527Z,31.42
2019-02-22T22:49:26.479Z,31.87
2019-02-22T22:51:55.756Z,31.37
2019-02-22T22:54:24.680Z,28.42
2019-02-22T22:56:53.575Z,32.53
2019-02-22T22:59:22.376Z,29.00
2019-02-22T23:01:51.190Z,29.82
2019-02-22T23:04:20.000Z,32.55
2019-02-22T23:06:48.768Z,31.00
2019-02-22T23:09:19.161Z,27.95
2019-02-22T23:11:48.003Z,32.83
2019-02-22T23:14:16.685Z,29.32
2019-02-22T23:16:45.567Z,29.50
2019-02-22T23:19:14.326Z,27.87
2019-02-22T23:21:43.222Z,28.23
2019-02-22T23:24:17.907Z,29.02
2019-02-22T23:26:46.415Z,30.32
2019-02-22T23:29:16.850Z,30.97
2019-02-22T23:31:45.563Z,30.12
2019-02-22T23:34:14.275Z,31.85
2019-02-22T23:36:43.009Z,29.25
2019-02-22T23:39:11.789Z,28.52
2019-02-22T23:41:40.552Z,26.65
2019-02-22T23:44:09.346Z,27.50
2019-02-22T23:46:38.095Z,27.50
2019-02-22T23:49:13.277Z,26.20
2019-02-22T23:51:37.447Z,27.73
2019-02-22T23:54:06.271Z,26.95
2019-02-22T23:56:35.062Z,26.02
2019-02-22T23:59:03.814Z,25.23
